Time;durP1;ratioP1;P1;durP2;ratioP2;P2;SDS_P1;SDS_P2;PMS_P1;PMS_P2;Temp;Humidity;BMP_temperature;BMP_pressure;BME280_temperature;BME280_humidity;BME280_pressure;Samples;Min_cycle;Max_cycle;Signal;HPM_P1;HPM_P2
2024/02/10 00:02:01;;;;;;;;;;;;;;;8.24;100.00;96021.27;110455;1241;69838;-63
2024/02/10 00:04:33;;;;;;;;;;;;;;;8.24;100.00;96017.45;110462;1238;59750;-63
2024/02/10 00:07:01;;;;;;;;;;;;;;;8.24;100.00;96017.13;110439;1241;59729;-63
2024/02/10 00:09:30;;;;;;;;;;;;;;;8.23;100.00;96027.07;110495;1241;69607;-62
2024/02/10 00:12:00;;;;;;;;;;;;;;;8.24;100.00;96031.38;110514;1238;69558;-62
2024/02/10 00:14:28;;;;;;;;;;;;;;;8.24;100.00;96038.48;110485;1238;69201;-63
2024/02/10 00:16:57;;;;;;;;;;;;;;;8.25;100.00;96040.80;110517;1242;59699;-63
2024/02/10 00:19:26;;;;;;;;;;;;;;;8.25;100.00;96043.38;110520;1241;59595;-62
2024/02/10 00:21:55;;;;;;;;;;;;;;;8.26;99.87;96044.37;110464;1239;71449;-63
2024/02/10 00:24:26;;;;;;;;;;;;;;;8.26;99.41;96048.52;110425;1241;69795;-63
2024/02/10 00:26:55;;;;;;;;;;;;;;;8.27;100.00;96046.17;110453;1238;69906;-63
2024/02/10 00:29:24;;;;;;;;;;;;;;;8.28;99.49;96048.73;110494;1239;59757;-62
2024/02/10 00:31:53;;;;;;;;;;;;;;;8.30;99.75;96051.98;110555;1240;59638;-62
2024/02/10 00:34:24;;;;;;;;;;;;;;;8.33;100.00;96050.17;110552;1241;71346;-65
2024/02/10 00:36:53;;;;;;;;;;;;;;;8.35;98.64;96049.29;110524;1238;70289;-63
2024/02/10 00:39:23;;;;;;;;;;;;;;;8.36;94.69;96047.33;110501;1238;68309;-62
2024/02/10 00:41:52;;;;;;;;;;;;;;;8.34;95.05;96048.00;110515;1242;59676;-63
2024/02/10 00:44:22;;;;;;;;;;;;;;;8.33;96.16;96053.17;110559;1238;59654;-61
2024/02/10 00:46:51;;;;;;;;;;;;;;;8.32;99.55;96057.05;110550;1240;72106;-61
2024/02/10 00:49:24;;;;;;;;;;;;;;;8.31;98.06;96056.25;110555;1238;69059;-62
2024/02/10 00:51:55;;;;;;;;;;;;;;;8.29;100.00;96054.14;110548;1238;68285;-62
2024/02/10 00:54:29;;;;;;;;;;;;;;;8.29;100.00;96053.95;110524;1241;59663;-61
2024/02/10 00:56:58;;;;;;;;;;;;;;;8.30;100.00;96055.48;110524;1238;59702;-61
2024/02/10 00:59:27;;;;;;;;;;;;;;;8.31;100.00;96056.09;110542;1240;71959;-61
2024/02/10 01:01:55;;;;;;;;;;;;;;;8.32;100.00;96051.84;110402;1241;69305;-61
2024/02/10 01:04:27;;;;;;;;;;;;;;;8.33;99.15;96050.39;110368;1241;69787;-61
2024/02/10 01:07:01;;;;;;;;;;;;;;;8.34;97.52;96048.22;110438;1241;59722;-61
2024/02/10 01:09:30;;;;;;;;;;;;;;;8.32;97.13;96043.64;110442;1240;59659;-62
2024/02/10 01:11:59;;;;;;;;;;;;;;;8.30;96.37;96040.06;110451;1240;72045;-61
2024/02/10 01:14:29;;;;;;;;;;;;;;;8.24;99.23;96042.61;110518;1238;69782;-61
2024/02/10 01:16:58;;;;;;;;;;;;;;;8.18;100.00;96048.50;110392;1238;69983;-61
2024/02/10 01:19:27;;;;;;;;;;;;;;;8.14;100.00;96050.07;110444;1240;59737;-61
2024/02/10 01:21:56;;;;;;;;;;;;;;;8.10;100.00;96056.27;110556;1241;59747;-61
2024/02/10 01:24:28;;;;;;;;;;;;;;;8.07;100.00;96057.92;110468;1242;70409;-61
2024/02/10 01:26:57;;;;;;;;;;;;;;;8.06;100.00;96056.44;110465;1238;68816;-61
2024/02/10 01:29:26;;;;;;;;;;;;;;;8.05;100.00;96054.12;110562;1241;69660;-62
2024/02/10 01:31:54;;;;;;;;;;;;;;;8.03;100.00;96049.90;110466;1238;59716;-62
2024/02/10 01:34:24;;;;;;;;;;;;;;;8.02;100.00;96051.41;110460;1238;59753;-62
2024/02/10 01:36:53;;;;;;;;;;;;;;;8.00;100.00;96052.49;110466;1238;71215;-62
2024/02/10 01:39:21;;;;;;;;;;;;;;;7.97;100.00;96055.88;110540;1241;69287;-62
2024/02/10 01:41:52;;;;;;;;;;;;;;;7.95;100.00;96061.93;110392;1240;69246;-62
2024/02/10 01:44:21;;;;;;;;;;;;;;;7.93;100.00;96063.79;110394;1241;59652;-62
2024/02/10 01:46:50;;;;;;;;;;;;;;;7.93;100.00;96062.44;110476;1238;59996;-62
2024/02/10 01:49:19;;;;;;;;;;;;;;;7.91;100.00;96061.88;110414;1242;71357;-62
2024/02/10 01:51:48;;;;;;;;;;;;;;;7.90;100.00;96061.77;110415;1238;69092;-61
2024/02/10 01:54:17;;;;;;;;;;;;;;;7.90;100.00;96056.91;110423;1238;70230;-62
2024/02/10 01:56:46;;;;;;;;;;;;;;;7.89;100.00;96053.00;110422;1238;59738;-61
2024/02/10 01:59:14;;;;;;;;;;;;;;;7.87;100.00;96051.95;110414;1240;59666;-61
2024/02/10 02:01:47;;;;;;;;;;;;;;;7.87;100.00;96055.79;110418;1241;72150;-61
2024/02/10 02:04:17;;;;;;;;;;;;;;;7.86;100.00;96053.92;110370;1240;69099;-61
2024/02/10 02:06:46;;;;;;;;;;;;;;;7.83;100.00;96058.06;110340;1241;69865;-61
2024/02/10 02:09:15;;;;;;;;;;;;;;;7.81;100.00;96055.93;110424;1241;59700;-61
2024/02/10 02:11:45;;;;;;;;;;;;;;;7.80;100.00;96059.15;110459;1238;59693;-60
2024/02/10 02:14:15;;;;;;;;;;;;;;;7.79;100.00;96062.39;110450;1240;71123;-61
2024/02/10 02:16:46;;;;;;;;;;;;;;;7.77;100.00;96063.04;110390;1241;69887;-61
2024/02/10 02:19:16;;;;;;;;;;;;;;;7.75;100.00;96066.85;110359;1238;69278;-61
2024/02/10 02:21:45;;;;;;;;;;;;;;;7.73;100.00;96067.75;110399;1241;59766;-61
2024/02/10 02:24:14;;;;;;;;;;;;;;;7.72;100.00;96075.45;110359;1241;59657;-61
2024/02/10 02:26:43;;;;;;;;;;;;;;;7.71;100.00;96074.50;110418;1240;71381;-61
2024/02/10 02:29:14;;;;;;;;;;;;;;;7.69;100.00;96074.15;110388;1238;68569;-61
2024/02/10 02:31:43;;;;;;;;;;;;;;;7.67;100.00;96078.27;110373;1240;69854;-61
2024/02/10 02:34:12;;;;;;;;;;;;;;;7.60;100.00;96077.08;110528;1241;59671;-61
2024/02/10 02:36:41;;;;;;;;;;;;;;;7.58;100.00;96078.42;110389;1240;59670;-61
2024/02/10 02:39:10;;;;;;;;;;;;;;;7.56;100.00;96081.25;110410;1240;71980;-62
2024/02/10 02:41:38;;;;;;;;;;;;;;;7.52;100.00;96086.77;110365;1238;69162;-61
2024/02/10 02:44:14;;;;;;;;;;;;;;;7.49;100.00;96085.60;110449;1238;70426;-62
2024/02/10 02:46:44;;;;;;;;;;;;;;;7.46;100.00;96082.42;110482;1238;59774;-61
2024/02/10 02:49:15;;;;;;;;;;;;;;;7.42;100.00;96081.88;110452;1241;59672;-61
2024/02/10 02:51:48;;;;;;;;;;;;;;;7.38;100.00;96081.65;110455;1238;71791;-61
2024/02/10 02:54:18;;;;;;;;;;;;;;;7.36;100.00;96079.95;110386;1241;69689;-61
2024/02/10 02:56:51;;;;;;;;;;;;;;;7.34;100.00;96074.39;110395;1238;68116;-61
2024/02/10 02:59:20;;;;;;;;;;;;;;;7.32;100.00;96073.51;110493;1238;59725;-61
2024/02/10 03:01:54;;;;;;;;;;;;;;;7.30;100.00;96061.48;110432;1238;59688;-61
2024/02/10 03:04:24;;;;;;;;;;;;;;;7.28;100.00;96053.90;110414;1239;72008;-61
2024/02/10 03:06:54;;;;;;;;;;;;;;;7.22;100.00;96057.30;110406;1240;69687;-61
2024/02/10 03:09:23;;;;;;;;;;;;;;;7.19;100.00;96066.11;110362;1240;70138;-62
2024/02/10 03:11:52;;;;;;;;;;;;;;;7.15;100.00;96068.95;110367;1240;59711;-61
2024/02/10 03:14:21;;;;;;;;;;;;;;;7.12;100.00;96076.66;110440;1238;59652;-61
2024/02/10 03:16:49;;;;;;;;;;;;;;;7.09;100.00;96080.66;110417;1238;71172;-61
2024/02/10 03:19:18;;;;;;;;;;;;;;;7.08;100.00;96082.30;110420;1241;68250;-62
2024/02/10 03:21:47;;;;;;;;;;;;;;;7.07;100.00;96075.83;110452;1238;69318;-62
2024/02/10 03:24:16;;;;;;;;;;;;;;;7.04;100.00;96070.20;110394;1238;60118;-62
2024/02/10 03:26:45;;;;;;;;;;;;;;;7.01;100.00;96070.59;110489;1241;59658;-62
2024/02/10 03:29:14;;;;;;;;;;;;;;;6.98;100.00;96068.41;110408;1238;71436;-62
2024/02/10 03:31:44;;;;;;;;;;;;;;;6.96;100.00;96072.00;110367;1238;69211;-62
2024/02/10 03:34:13;;;;;;;;;;;;;;;6.96;100.00;96075.01;110408;1242;69750;-62
2024/02/10 03:36:42;;;;;;;;;;;;;;;6.95;100.00;96076.50;110417;1238;59734;-62
2024/02/10 03:39:10;;;;;;;;;;;;;;;6.88;100.00;96076.81;110511;1238;59689;-62
2024/02/10 03:41:39;;;;;;;;;;;;;;;6.82;100.00;96076.11;110492;1240;71340;-62
2024/02/10 03:44:08;;;;;;;;;;;;;;;6.77;100.00;96077.73;110545;1242;69005;-62
2024/02/10 03:46:36;;;;;;;;;;;;;;;6.73;100.00;96070.59;110390;1240;69860;-62
2024/02/10 03:49:05;;;;;;;;;;;;;;;6.70;100.00;96069.95;110421;1241;59700;-62
2024/02/10 03:51:34;;;;;;;;;;;;;;;6.67;100.00;96077.61;110503;1241;59627;-62
2024/02/10 03:54:02;;;;;;;;;;;;;;;6.67;100.00;96084.20;110579;1238;70389;-62
2024/02/10 03:56:31;;;;;;;;;;;;;;;6.68;100.00;96080.67;110467;1240;69262;-62
2024/02/10 03:59:02;;;;;;;;;;;;;;;6.70;100.00;96084.36;110458;1241;69231;-62
2024/02/10 04:01:30;;;;;;;;;;;;;;;6.70;100.00;96088.15;110553;1238;59744;-62
2024/02/10 04:04:02;;;;;;;;;;;;;;;6.69;100.00;96088.25;110563;1240;59649;-62
2024/02/10 04:06:31;;;;;;;;;;;;;;;6.63;100.00;96083.63;110517;1238;70313;-61
2024/02/10 04:09:01;;;;;;;;;;;;;;;6.55;100.00;96084.41;110402;1238;69399;-62
2024/02/10 04:11:30;;;;;;;;;;;;;;;6.50;100.00;96081.67;110411;1240;68411;-62
2024/02/10 04:14:01;;;;;;;;;;;;;;;6.48;100.00;96080.66;110444;1240;59748;-62
2024/02/10 04:16:30;;;;;;;;;;;;;;;6.45;100.00;96080.52;110515;1241;59686;-62
2024/02/10 04:19:02;;;;;;;;;;;;;;;6.42;100.00;96078.34;110393;1238;71970;-62
2024/02/10 04:21:30;;;;;;;;;;;;;;;6.40;100.00;96076.42;110594;1241;69857;-61
2024/02/10 04:23:59;;;;;;;;;;;;;;;6.37;100.00;96075.27;110514;1242;69805;-62
2024/02/10 04:26:28;;;;;;;;;;;;;;;6.37;100.00;96078.56;110480;1241;59738;-61
2024/02/10 04:29:00;;;;;;;;;;;;;;;6.39;100.00;96075.29;110407;1241;59800;-61
2024/02/10 04:31:29;;;;;;;;;;;;;;;6.44;100.00;96069.95;110472;1242;71434;-61
2024/02/10 04:33:58;;;;;;;;;;;;;;;6.48;100.00;96066.79;110477;1241;69800;-61
2024/02/10 04:36:28;;;;;;;;;;;;;;;6.56;100.00;96068.63;110531;1244;69828;-61
2024/02/10 04:38:58;;;;;;;;;;;;;;;6.61;100.00;96067.20;110557;1243;59672;-62
2024/02/10 04:41:27;;;;;;;;;;;;;;;6.62;100.00;96071.89;110522;1242;59731;-61
2024/02/10 04:43:56;;;;;;;;;;;;;;;6.65;100.00;96073.81;110420;1241;71332;-61
2024/02/10 04:46:25;;;;;;;;;;;;;;;6.64;100.00;96069.17;110482;1240;69772;-61
2024/02/10 04:48:53;;;;;;;;;;;;;;;6.63;100.00;96059.90;110528;1241;69130;-61
2024/02/10 04:51:23;;;;;;;;;;;;;;;6.67;100.00;96060.14;110277;1242;59735;-62
2024/02/10 04:53:52;;;;;;;;;;;;;;;6.73;100.00;96067.85;110462;1241;59672;-62
2024/02/10 04:56:21;;;;;;;;;;;;;;;6.77;100.00;96072.52;110406;1240;71967;-62
2024/02/10 04:58:49;;;;;;;;;;;;;;;6.82;100.00;96070.40;110409;1241;69180;-61
2024/02/10 05:01:20;;;;;;;;;;;;;;;6.87;100.00;96071.56;110429;1241;69290;-62
2024/02/10 05:03:49;;;;;;;;;;;;;;;6.90;100.00;96077.69;110372;1238;59786;-62
2024/02/10 05:06:18;;;;;;;;;;;;;;;6.90;100.00;96081.88;110383;1241;59671;-62
2024/02/10 05:08:47;;;;;;;;;;;;;;;6.88;100.00;96081.84;110401;1242;71827;-62
2024/02/10 05:11:15;;;;;;;;;;;;;;;6.87;100.00;96085.55;110384;1240;69655;-62
2024/02/10 05:13:44;;;;;;;;;;;;;;;6.87;100.00;96087.27;110422;1238;69252;-62
2024/02/10 05:16:17;;;;;;;;;;;;;;;6.88;100.00;96090.34;110408;1240;59953;-62
2024/02/10 05:18:46;;;;;;;;;;;;;;;6.85;100.00;96088.30;110449;1242;59723;-60
2024/02/10 05:21:18;;;;;;;;;;;;;;;6.83;100.00;96091.79;110459;1238;71362;-61
2024/02/10 05:23:48;;;;;;;;;;;;;;;6.80;100.00;96094.96;110468;1240;68395;-61
2024/02/10 05:26:17;;;;;;;;;;;;;;;6.78;100.00;96097.86;110455;1240;69944;-61
2024/02/10 05:28:49;;;;;;;;;;;;;;;6.77;100.00;96098.87;110504;1241;60132;-61
2024/02/10 05:31:18;;;;;;;;;;;;;;;6.78;100.00;96105.14;110467;1241;59622;-61
2024/02/10 05:33:48;;;;;;;;;;;;;;;6.82;100.00;96114.37;110422;1240;71306;-61
2024/02/10 05:36:18;;;;;;;;;;;;;;;6.82;100.00;96113.69;110431;1238;69157;-61
2024/02/10 05:38:47;;;;;;;;;;;;;;;6.76;100.00;96114.00;110411;1240;69810;-61
2024/02/10 05:41:17;;;;;;;;;;;;;;;6.75;100.00;96115.96;110423;1241;59670;-61
2024/02/10 05:43:47;;;;;;;;;;;;;;;6.74;100.00;96116.56;110426;1241;59743;-61
2024/02/10 05:46:16;;;;;;;;;;;;;;;6.73;100.00;96117.36;110497;1241;71651;-61
2024/02/10 05:48:45;;;;;;;;;;;;;;;6.71;100.00;96114.36;110499;1241;69772;-61
2024/02/10 05:51:14;;;;;;;;;;;;;;;6.74;100.00;96120.40;110375;1238;68250;-61
2024/02/10 05:53:49;;;;;;;;;;;;;;;6.76;100.00;96126.27;110378;1240;59738;-62
2024/02/10 05:56:22;;;;;;;;;;;;;;;6.78;100.00;96128.55;110518;1242;59665;-62
2024/02/10 05:58:51;;;;;;;;;;;;;;;6.79;100.00;96127.42;110404;1241;71986;-62
2024/02/10 06:01:19;;;;;;;;;;;;;;;6.81;100.00;96136.64;110428;1238;69039;-62
2024/02/10 06:03:52;;;;;;;;;;;;;;;6.83;100.00;96137.86;110404;1240;69201;-61
2024/02/10 06:06:21;;;;;;;;;;;;;;;6.86;100.00;96134.33;110407;1241;59660;-61
2024/02/10 06:08:49;;;;;;;;;;;;;;;6.89;100.00;96137.18;110453;1242;59669;-61
2024/02/10 06:11:19;;;;;;;;;;;;;;;6.94;100.00;96133.04;110585;1238;70240;-61
2024/02/10 06:13:51;;;;;;;;;;;;;;;6.96;100.00;96140.64;110406;1245;68308;-61
2024/02/10 06:16:24;;;;;;;;;;;;;;;6.98;100.00;96140.64;109910;1238;704504;-61
2024/02/10 06:18:54;;;;;;;;;;;;;;;7.01;100.00;96142.12;110486;1238;60058;-61
2024/02/10 06:21:23;;;;;;;;;;;;;;;7.03;100.00;96140.80;110434;1241;60196;-61
2024/02/10 06:23:52;;;;;;;;;;;;;;;7.04;100.00;96142.56;110434;1241;72196;-61
2024/02/10 06:26:23;;;;;;;;;;;;;;;7.05;100.00;96142.30;110436;1242;69173;-62
2024/02/10 06:28:54;;;;;;;;;;;;;;;7.07;100.00;96138.34;110480;1242;69899;-61
2024/02/10 06:31:25;;;;;;;;;;;;;;;7.09;100.00;96142.91;110507;1242;59741;-61
2024/02/10 06:33:54;;;;;;;;;;;;;;;7.08;100.00;96140.76;110497;1241;59672;-62
2024/02/10 06:36:25;;;;;;;;;;;;;;;7.08;100.00;96139.73;110387;1240;71021;-61
2024/02/10 06:38:57;;;;;;;;;;;;;;;7.07;100.00;96142.17;110378;1240;69914;-61
2024/02/10 06:41:27;;;;;;;;;;;;;;;7.09;100.00;96141.88;110461;1238;69765;-62
2024/02/10 06:43:55;;;;;;;;;;;;;;;7.10;100.00;96143.47;110350;1241;59712;-62
2024/02/10 06:46:25;;;;;;;;;;;;;;;7.13;100.00;96145.65;110405;1241;59685;-61
2024/02/10 06:48:53;;;;;;;;;;;;;;;7.15;100.00;96151.23;110380;1241;72008;-62
2024/02/10 06:51:22;;;;;;;;;;;;;;;7.17;100.00;96151.11;110416;1240;69639;-61
2024/02/10 06:53:51;;;;;;;;;;;;;;;7.20;100.00;96151.06;110399;1238;68756;-61
2024/02/10 06:56:21;;;;;;;;;;;;;;;7.24;100.00;96149.71;110363;1238;59679;-61
2024/02/10 06:58:50;;;;;;;;;;;;;;;7.28;100.00;96148.30;110419;1240;59624;-62
2024/02/10 07:01:19;;;;;;;;;;;;;;;7.32;100.00;96149.71;110424;1242;72121;-61
2024/02/10 07:03:48;;;;;;;;;;;;;;;7.35;100.00;96147.95;110402;1238;69297;-61
2024/02/10 07:06:17;;;;;;;;;;;;;;;7.37;100.00;96144.64;110368;1240;69047;-61
2024/02/10 07:08:47;;;;;;;;;;;;;;;7.40;100.00;96142.33;110438;1240;59663;-62
2024/02/10 07:11:15;;;;;;;;;;;;;;;7.45;100.00;96146.31;110416;1241;59678;-62
2024/02/10 07:13:44;;;;;;;;;;;;;;;7.49;100.00;96152.36;110367;1238;72410;-62
2024/02/10 07:16:13;;;;;;;;;;;;;;;7.53;100.00;96152.20;110412;1242;69326;-62
2024/02/10 07:18:47;;;;;;;;;;;;;;;7.56;100.00;96150.73;110387;1238;69053;-62
2024/02/10 07:21:17;;;;;;;;;;;;;;;7.61;100.00;96151.04;110400;1241;59660;-62
2024/02/10 07:23:46;;;;;;;;;;;;;;;7.65;100.00;96155.63;110440;1242;59682;-61
2024/02/10 07:26:17;;;;;;;;;;;;;;;7.70;100.00;96149.34;110361;1241;71141;-61
2024/02/10 07:28:53;;;;;;;;;;;;;;;7.76;100.00;96137.23;110452;1241;69783;-61
2024/02/10 07:31:22;;;;;;;;;;;;;;;7.83;100.00;96133.31;110413;1238;69929;-61
2024/02/10 07:33:51;;;;;;;;;;;;;;;7.92;100.00;96123.01;110358;1242;59725;-61
2024/02/10 07:36:20;;;;;;;;;;;;;;;8.02;100.00;96122.00;110407;1242;60042;-61
2024/02/10 07:38:48;;;;;;;;;;;;;;;8.13;100.00;96122.30;110410;1238;71337;-61
2024/02/10 07:41:17;;;;;;;;;;;;;;;8.25;100.00;96121.54;110414;1239;69185;-61
2024/02/10 07:43:46;;;;;;;;;;;;;;;8.40;100.00;96118.15;110477;1241;69305;-60
2024/02/10 07:46:16;;;;;;;;;;;;;;;8.64;100.00;96110.58;110425;1238;59724;-61
2024/02/10 07:48:45;;;;;;;;;;;;;;;9.00;100.00;96110.61;110475;1241;59711;-61
2024/02/10 07:51:15;;;;;;;;;;;;;;;9.59;100.00;96110.48;110407;1241;71802;-61
2024/02/10 07:53:44;;;;;;;;;;;;;;;10.35;100.00;96109.63;110453;1241;69845;-62
2024/02/10 07:56:13;;;;;;;;;;;;;;;11.23;100.00;96102.90;110431;1238;69002;-62
2024/02/10 07:58:42;;;;;;;;;;;;;;;12.16;100.00;96101.36;110414;1241;59631;-62
2024/02/10 08:01:11;;;;;;;;;;;;;;;13.00;100.00;96101.56;110384;1238;59679;-61
2024/02/10 08:03:41;;;;;;;;;;;;;;;13.69;100.00;96103.41;110384;1240;72009;-61
2024/02/10 08:06:10;;;;;;;;;;;;;;;14.18;100.00;96106.73;110370;1241;69124;-62
2024/02/10 08:08:40;;;;;;;;;;;;;;;14.15;100.00;96112.52;110399;1241;69875;-62
2024/02/10 08:11:09;;;;;;;;;;;;;;;14.10;100.00;96114.89;110409;1242;59721;-62
2024/02/10 08:13:37;;;;;;;;;;;;;;;14.05;100.00;96109.77;110395;1242;59698;-61
2024/02/10 08:16:08;;;;;;;;;;;;;;;14.32;100.00;96111.88;110575;1242;71961;-62
2024/02/10 08:18:38;;;;;;;;;;;;;;;14.63;100.00;96109.44;110508;1241;69238;-63
2024/02/10 08:21:07;;;;;;;;;;;;;;;15.05;100.00;96100.77;110527;1241;69549;-61
2024/02/10 08:23:38;;;;;;;;;;;;;;;15.10;99.88;96095.69;110391;1241;59745;-60
2024/02/10 08:26:06;;;;;;;;;;;;;;;15.03;100.00;96096.59;110566;1242;59668;-62
2024/02/10 08:28:35;;;;;;;;;;;;;;;14.68;98.53;96098.00;110436;1238;71315;-61
2024/02/10 08:31:04;;;;;;;;;;;;;;;14.61;100.00;96100.00;110503;1240;69221;-62
2024/02/10 08:33:34;;;;;;;;;;;;;;;14.60;99.95;96103.26;110400;1240;69867;-61
2024/02/10 08:36:04;;;;;;;;;;;;;;;14.99;98.39;96095.07;110381;1240;59698;-62
2024/02/10 08:38:34;;;;;;;;;;;;;;;15.57;99.80;96095.97;110422;1241;59689;-61
2024/02/10 08:41:03;;;;;;;;;;;;;;;16.30;95.99;96100.89;110426;1242;71243;-62
2024/02/10 08:43:32;;;;;;;;;;;;;;;16.56;93.90;96102.06;110487;1241;69786;-64
2024/02/10 08:46:01;;;;;;;;;;;;;;;16.19;89.71;96101.29;110512;1242;69181;-61
2024/02/10 08:48:30;;;;;;;;;;;;;;;16.44;94.90;96098.42;110403;1240;59743;-61
2024/02/10 08:50:58;;;;;;;;;;;;;;;16.35;88.93;96101.09;110358;1241;59702;-62
2024/02/10 08:53:29;;;;;;;;;;;;;;;16.26;88.26;96100.67;110541;1238;71984;-62
2024/02/10 08:55:57;;;;;;;;;;;;;;;16.13;96.52;96105.00;110448;1242;69896;-60
2024/02/10 08:58:26;;;;;;;;;;;;;;;15.81;91.82;96101.55;110457;1242;68312;-62
2024/02/10 09:00:57;;;;;;;;;;;;;;;15.25;89.16;96103.48;110406;1241;59729;-61
2024/02/10 09:03:26;;;;;;;;;;;;;;;14.91;93.86;96104.42;110425;1244;59670;-60
2024/02/10 09:05:55;;;;;;;;;;;;;;;14.81;94.31;96105.21;110414;1242;71977;-61
2024/02/10 09:08:25;;;;;;;;;;;;;;;14.75;96.16;96112.69;110525;1244;69756;-61
2024/02/10 09:10:57;;;;;;;;;;;;;;;14.72;98.25;96119.43;110409;1238;69302;-62
2024/02/10 09:13:26;;;;;;;;;;;;;;;14.58;92.62;96118.26;110510;1242;59729;-62
2024/02/10 09:15:55;;;;;;;;;;;;;;;14.39;93.09;96115.23;110606;1241;59746;-62
2024/02/10 09:18:24;;;;;;;;;;;;;;;14.23;97.16;96116.04;110497;1240;71351;-61
2024/02/10 09:20:53;;;;;;;;;;;;;;;14.11;98.33;96115.25;110462;1238;68775;-61
2024/02/10 09:23:21;;;;;;;;;;;;;;;14.10;99.39;96117.09;110527;1240;69263;-61
2024/02/10 09:25:50;;;;;;;;;;;;;;;14.04;98.06;96111.74;110470;1240;59737;-62
2024/02/10 09:28:19;;;;;;;;;;;;;;;13.86;94.76;96105.13;110480;1240;59637;-63
2024/02/10 09:30:48;;;;;;;;;;;;;;;13.69;94.93;96108.33;110466;1241;71178;-62
2024/02/10 09:33:24;;;;;;;;;;;;;;;13.51;95.22;96101.88;110494;1238;69219;-62
2024/02/10 09:35:53;;;;;;;;;;;;;;;13.44;98.14;96104.48;110405;1242;69257;-62
2024/02/10 09:38:22;;;;;;;;;;;;;;;13.43;98.54;96104.25;110452;1241;59728;-62
2024/02/10 09:40:56;;;;;;;;;;;;;;;13.37;94.87;96102.14;110617;1241;59737;-62
2024/02/10 09:43:33;;;;;;;;;;;;;;;13.31;96.02;96101.11;110440;1241;71264;-61
2024/02/10 09:46:06;;;;;;;;;;;;;;;13.31;97.25;96099.58;110421;1241;69353;-61
2024/02/10 09:48:38;;;;;;;;;;;;;;;13.31;97.37;96098.85;110432;1242;69432;-60
2024/02/10 09:51:07;;;;;;;;;;;;;;;13.42;97.80;96101.69;110447;1242;59695;-61
2024/02/10 09:53:40;;;;;;;;;;;;;;;13.57;97.71;96101.76;110525;1247;59710;-61
2024/02/10 09:56:15;;;;;;;;;;;;;;;13.68;96.66;96108.08;110525;1242;71221;-61
2024/02/10 09:58:49;;;;;;;;;;;;;;;13.72;92.64;96112.57;110534;1241;69317;-62
2024/02/10 10:01:18;;;;;;;;;;;;;;;13.71;91.98;96110.52;110501;1241;69731;-63
2024/02/10 10:03:48;;;;;;;;;;;;;;;13.72;94.35;96110.56;110530;1242;59732;-64
2024/02/10 10:06:20;;;;;;;;;;;;;;;13.71;94.94;96111.30;110536;1238;59663;-62
2024/02/10 10:08:49;;;;;;;;;;;;;;;13.66;94.78;96115.45;110514;1242;71369;-63
2024/02/10 10:11:18;;;;;;;;;;;;;;;13.63;93.97;96114.25;110453;1242;68507;-63
2024/02/10 10:13:47;;;;;;;;;;;;;;;13.60;95.45;96110.48;110478;1243;69066;-63
2024/02/10 10:16:15;;;;;;;;;;;;;;;13.59;96.30;96110.10;110446;1238;59778;-63
2024/02/10 10:18:55;;;;;;;;;;;;;;;13.57;98.12;96107.23;110613;1241;59737;-63
2024/02/10 10:21:24;;;;;;;;;;;;;;;13.53;97.38;96104.64;110425;1240;71538;-62
2024/02/10 10:23:54;;;;;;;;;;;;;;;13.47;97.29;96103.68;110389;1242;69737;-61
2024/02/10 10:26:24;;;;;;;;;;;;;;;13.45;97.85;96105.14;110405;1242;67538;-63
2024/02/10 10:28:53;;;;;;;;;;;;;;;13.47;98.42;96092.65;110426;1241;59664;-62
2024/02/10 10:31:22;;;;;;;;;;;;;;;13.54;98.18;96084.71;110467;1240;59647;-61
2024/02/10 10:33:51;;;;;;;;;;;;;;;13.61;97.21;96085.95;110539;1242;71195;-61
2024/02/10 10:36:20;;;;;;;;;;;;;;;13.63;96.00;96082.14;110523;1240;69065;-61
2024/02/10 10:38:49;;;;;;;;;;;;;;;13.71;95.29;96081.17;110405;1242;69993;-62
2024/02/10 10:41:21;;;;;;;;;;;;;;;13.77;96.03;96078.27;110406;1242;59743;-61
2024/02/10 10:43:51;;;;;;;;;;;;;;;13.79;97.02;96075.48;110414;1241;59737;-62
2024/02/10 10:46:20;;;;;;;;;;;;;;;13.80;97.47;96076.60;110412;1241;71345;-63
2024/02/10 10:48:49;;;;;;;;;;;;;;;13.85;96.84;96077.42;110431;1241;69986;-61
2024/02/10 10:51:19;;;;;;;;;;;;;;;13.85;95.38;96076.68;110460;1240;69913;-62
2024/02/10 10:53:49;;;;;;;;;;;;;;;13.81;95.40;96073.27;110391;1238;60039;-62
2024/02/10 10:56:23;;;;;;;;;;;;;;;13.84;96.10;96074.05;110403;1244;59692;-62
2024/02/10 10:58:57;;;;;;;;;;;;;;;13.85;95.84;96073.58;110222;1242;71524;-61
2024/02/10 11:01:27;;;;;;;;;;;;;;;13.82;95.79;96072.47;110362;1242;69467;-61
2024/02/10 11:04:01;;;;;;;;;;;;;;;13.81;95.09;96069.21;110360;1240;69400;-61
2024/02/10 11:06:35;;;;;;;;;;;;;;;13.75;94.25;96063.77;110532;1241;59686;-61
2024/02/10 11:09:04;;;;;;;;;;;;;;;13.70;94.66;96066.91;110408;1243;59666;-61
2024/02/10 11:11:37;;;;;;;;;;;;;;;13.69;95.01;96069.94;110406;1241;71857;-60
2024/02/10 11:14:09;;;;;;;;;;;;;;;13.71;94.94;96072.55;110410;1241;69693;-61
2024/02/10 11:16:38;;;;;;;;;;;;;;;13.74;94.75;96070.82;110443;1239;69878;-61
2024/02/10 11:19:11;;;;;;;;;;;;;;;13.76;92.42;96074.14;110310;1238;59804;-61
2024/02/10 11:21:46;;;;;;;;;;;;;;;13.83;93.47;96071.70;110455;1239;59678;-63
2024/02/10 11:24:16;;;;;;;;;;;;;;;13.90;91.69;96070.43;110411;1242;70549;-61
2024/02/10 11:26:46;;;;;;;;;;;;;;;14.00;92.17;96069.11;110528;1240;69770;-63
2024/02/10 11:29:18;;;;;;;;;;;;;;;14.11;90.51;96069.40;110493;1238;69275;-61
2024/02/10 11:31:48;;;;;;;;;;;;;;;14.24;89.14;96070.23;110390;1240;60152;-62
2024/02/10 11:34:17;;;;;;;;;;;;;;;14.41;90.32;96068.89;110447;1238;59689;-61
2024/02/10 11:36:52;;;;;;;;;;;;;;;14.56;89.40;96071.19;110404;1242;71903;-60
2024/02/10 11:39:24;;;;;;;;;;;;;;;14.58;85.76;96069.67;110406;1241;69733;-61
2024/02/10 11:42:00;;;;;;;;;;;;;;;14.67;87.88;96072.89;110440;1241;69852;-60
2024/02/10 11:44:29;;;;;;;;;;;;;;;14.76;87.61;96076.38;110477;1242;59730;-62
2024/02/10 11:46:59;;;;;;;;;;;;;;;14.86;86.42;96078.71;110431;1242;59776;-61
2024/02/10 11:49:29;;;;;;;;;;;;;;;15.05;85.21;96077.38;110386;1242;71441;-61
2024/02/10 11:51:58;;;;;;;;;;;;;;;15.31;82.80;96077.65;110412;1241;69221;-63
2024/02/10 11:54:28;;;;;;;;;;;;;;;15.62;80.53;96078.20;110411;1242;68514;-61
2024/02/10 11:57:03;;;;;;;;;;;;;;;15.87;80.62;96077.14;110289;1242;59688;-62
2024/02/10 11:59:34;;;;;;;;;;;;;;;15.95;80.45;96079.73;110409;1242;59679;-62
2024/02/10 12:02:08;;;;;;;;;;;;;;;15.92;77.60;96073.67;110418;1241;72069;-60
2024/02/10 12:04:41;;;;;;;;;;;;;;;15.88;77.78;96071.58;110414;1242;69160;-61
2024/02/10 12:07:12;;;;;;;;;;;;;;;15.88;76.91;96069.61;110411;1240;69204;-61
2024/02/10 12:09:41;;;;;;;;;;;;;;;15.85;76.27;96072.58;110394;1245;59745;-61
2024/02/10 12:12:12;;;;;;;;;;;;;;;15.77;75.43;96070.29;110401;1239;59663;-61
2024/02/10 12:14:41;;;;;;;;;;;;;;;15.61;71.77;96070.59;110398;1242;72071;-61
2024/02/10 12:17:09;;;;;;;;;;;;;;;15.44;70.46;96066.95;110380;1242;69911;-61
2024/02/10 12:19:41;;;;;;;;;;;;;;;15.30;70.26;96066.54;110400;1242;68824;-61
2024/02/10 12:22:10;;;;;;;;;;;;;;;15.20;73.16;96065.38;110249;1242;59705;-60
2024/02/10 12:24:41;;;;;;;;;;;;;;;15.11;74.69;96063.61;110518;1239;59675;-60
2024/02/10 12:27:11;;;;;;;;;;;;;;;14.99;75.30;96055.57;110448;1242;69652;-61
2024/02/10 12:29:39;;;;;;;;;;;;;;;14.87;75.09;96056.45;110529;1241;69785;-61
2024/02/10 12:32:11;;;;;;;;;;;;;;;14.76;75.41;96057.28;110475;1242;69857;-61
2024/02/10 12:34:40;;;;;;;;;;;;;;;14.70;75.64;96058.16;110433;1240;59731;-61
2024/02/10 12:37:10;;;;;;;;;;;;;;;14.62;75.54;96059.37;110403;1242;59635;-61
2024/02/10 12:39:40;;;;;;;;;;;;;;;14.60;75.45;96063.87;110396;1241;71124;-61
2024/02/10 12:42:09;;;;;;;;;;;;;;;14.58;75.80;96069.05;110273;1240;68368;-62
2024/02/10 12:44:38;;;;;;;;;;;;;;;14.55;76.36;96067.73;110466;1242;70112;-62
2024/02/10 12:47:08;;;;;;;;;;;;;;;14.48;76.63;96065.18;110499;1238;59748;-62
2024/02/10 12:49:43;;;;;;;;;;;;;;;14.35;76.88;96064.42;110479;1242;59724;-62